Time;durP1;ratioP1;P1;durP2;ratioP2;P2;SDS_P1;SDS_P2;PMS_P1;PMS_P2;Temp;Humidity;BMP_temperature;BMP_pressure;BME280_temperature;BME280_humidity;BME280_pressure;Samples;Min_cycle;Max_cycle;Signal;HPM_P1;HPM_P2
2023/08/09 00:04:06;;;;;;;;;;;;;;;15.08;100.00;101155.28;10464158;28;19925;-67
2023/08/09 00:09:09;;;;;;;;;;;;;;;14.94;100.00;101153.63;10463941;28;19935;-67
2023/08/09 00:14:11;;;;;;;;;;;;;;;14.94;100.00;101151.00;10464070;28;20019;-66
2023/08/09 00:19:13;;;;;;;;;;;;;;;15.08;100.00;101156.16;10463666;28;19929;-67
2023/08/09 00:24:16;;;;;;;;;;;;;;;14.99;100.00;101164.69;10463471;28;19974;-67
2023/08/09 00:29:18;;;;;;;;;;;;;;;14.85;100.00;101160.41;10463256;28;19924;-67
2023/08/09 00:34:20;;;;;;;;;;;;;;;14.76;100.00;101167.16;10445352;28;19925;-67
2023/08/09 00:39:22;;;;;;;;;;;;;;;14.88;100.00;101170.75;10462868;28;20429;-67
2023/08/09 00:44:25;;;;;;;;;;;;;;;14.83;100.00;101172.84;10462887;28;19924;-67
2023/08/09 00:49:27;;;;;;;;;;;;;;;14.82;100.00;101174.63;10462370;28;19924;-68
2023/08/09 00:54:29;;;;;;;;;;;;;;;14.68;100.00;101164.22;10444771;28;20287;-67
2023/08/09 00:59:32;;;;;;;;;;;;;;;14.80;100.00;101165.16;10444578;28;19931;-67
2023/08/09 01:04:34;;;;;;;;;;;;;;;14.66;100.00;101176.66;10461961;28;19924;-67
2023/08/09 01:09:46;;;;;;;;;;;;;;;14.32;100.00;101181.53;10443375;28;19939;-67
2023/08/09 01:14:53;;;;;;;;;;;;;;;14.44;100.00;101175.44;10461586;28;20012;-67
2023/08/09 01:19:55;;;;;;;;;;;;;;;14.39;100.00;101177.56;10443493;28;19931;-67
2023/08/09 01:25:02;;;;;;;;;;;;;;;14.51;100.00;101178.50;10443428;28;19931;-67
2023/08/09 01:30:07;;;;;;;;;;;;;;;14.15;100.00;101189.72;10443844;28;19954;-67
2023/08/09 01:35:09;;;;;;;;;;;;;;;14.09;100.00;101183.06;10460531;28;19956;-67
2023/08/09 01:40:12;;;;;;;;;;;;;;;14.31;100.00;101198.28;10442939;28;19925;-67
2023/08/09 01:45:14;;;;;;;;;;;;;;;13.96;100.00;101182.19;10460180;28;20275;-67
2023/08/09 01:50:20;;;;;;;;;;;;;;;14.08;100.00;101191.91;10442530;28;19925;-67
2023/08/09 01:55:25;;;;;;;;;;;;;;;13.96;100.00;101208.50;10459691;28;20017;-67
2023/08/09 02:00:27;;;;;;;;;;;;;;;14.02;100.00;101203.69;10425686;28;20299;-67
2023/08/09 02:05:30;;;;;;;;;;;;;;;13.82;100.00;101214.66;10459481;28;19925;-67
2023/08/09 02:10:32;;;;;;;;;;;;;;;13.93;100.00;101215.66;10459122;28;19931;-67
2023/08/09 02:15:35;;;;;;;;;;;;;;;13.86;100.00;101222.25;10441387;28;20007;-67
2023/08/09 02:20:38;;;;;;;;;;;;;;;13.94;100.00;101227.88;10457889;28;19925;-67
2023/08/09 02:25:41;;;;;;;;;;;;;;;13.80;100.00;101235.81;10458617;28;20296;-67
2023/08/09 02:30:45;;;;;;;;;;;;;;;13.85;100.00;101227.63;10458361;28;19935;-67
2023/08/09 02:35:57;;;;;;;;;;;;;;;13.68;100.00;101241.84;10440642;28;19931;-66
2023/08/09 02:41:04;;;;;;;;;;;;;;;14.09;100.00;101235.72;10440515;28;20398;-67
2023/08/09 02:46:06;;;;;;;;;;;;;;;13.99;100.00;101239.91;10457925;28;19931;-67
2023/08/09 02:51:09;;;;;;;;;;;;;;;14.02;100.00;101242.31;10440063;28;19925;-67
2023/08/09 02:56:11;;;;;;;;;;;;;;;14.05;100.00;101250.03;10439725;28;19925;-66
2023/08/09 03:01:13;;;;;;;;;;;;;;;13.96;100.00;101262.00;10457166;28;19929;-67
2023/08/09 03:06:17;;;;;;;;;;;;;;;13.92;100.00;101265.78;10457589;28;19963;-66
2023/08/09 03:11:23;;;;;;;;;;;;;;;14.00;100.00;101265.28;10439697;28;19925;-67
2023/08/09 03:16:25;;;;;;;;;;;;;;;13.99;100.00;101261.81;10456872;28;19925;-67
2023/08/09 03:21:28;;;;;;;;;;;;;;;13.99;100.00;101259.16;10457136;28;19972;-67
2023/08/09 03:26:30;;;;;;;;;;;;;;;14.06;100.00;101264.88;10456943;28;19925;-67
2023/08/09 03:31:32;;;;;;;;;;;;;;;14.12;100.00;101269.72;10460219;28;20352;-66
2023/08/09 03:36:35;;;;;;;;;;;;;;;14.18;100.00;101276.41;10465346;28;19960;-67
2023/08/09 03:41:37;;;;;;;;;;;;;;;14.21;100.00;101279.69;10465020;28;20275;-67
2023/08/09 03:46:39;;;;;;;;;;;;;;;14.28;100.00;101295.94;10465232;28;19931;-67
2023/08/09 03:51:42;;;;;;;;;;;;;;;14.12;100.00;101299.56;10464606;28;20027;-67
2023/08/09 03:56:44;;;;;;;;;;;;;;;14.23;100.00;101288.31;10464396;28;19925;-67
2023/08/09 04:01:46;;;;;;;;;;;;;;;14.43;100.00;101288.81;10464467;28;20372;-67
2023/08/09 04:06:49;;;;;;;;;;;;;;;14.55;100.00;101305.59;10446466;28;19925;-67
2023/08/09 04:11:51;;;;;;;;;;;;;;;14.50;100.00;101305.91;10446606;28;19925;-67
2023/08/09 04:16:54;;;;;;;;;;;;;;;14.47;100.00;101321.91;10463725;28;19929;-67
2023/08/09 04:21:57;;;;;;;;;;;;;;;14.55;100.00;101316.16;10463579;28;20008;-67
2023/08/09 04:26:59;;;;;;;;;;;;;;;14.44;100.00;101330.88;10463530;28;19925;-67
2023/08/09 04:32:02;;;;;;;;;;;;;;;14.30;100.00;101349.34;10463198;28;19979;-67
2023/08/09 04:37:05;;;;;;;;;;;;;;;14.59;100.00;101350.16;10463097;28;19935;-67
2023/08/09 04:42:07;;;;;;;;;;;;;;;14.67;100.00;101353.09;10462199;28;19931;-67
2023/08/09 04:47:09;;;;;;;;;;;;;;;14.71;100.00;101361.66;10445254;28;19931;-67
2023/08/09 04:52:12;;;;;;;;;;;;;;;14.85;100.00;101358.09;10462508;28;19932;-67
2023/08/09 04:57:14;;;;;;;;;;;;;;;14.75;100.00;101363.13;10461936;28;19929;-67
2023/08/09 05:02:16;;;;;;;;;;;;;;;14.72;100.00;101363.34;10444263;28;19925;-67
2023/08/09 05:07:18;;;;;;;;;;;;;;;14.78;100.00;101367.38;10461831;28;19925;-67
2023/08/09 05:12:21;;;;;;;;;;;;;;;14.88;100.00;101371.09;10461792;28;19925;-67
2023/08/09 05:17:23;;;;;;;;;;;;;;;14.76;100.00;101383.28;10461278;28;20376;-67
2023/08/09 05:22:26;;;;;;;;;;;;;;;14.99;100.00;101389.66;10443486;28;19979;-67
2023/08/09 05:27:28;;;;;;;;;;;;;;;15.16;100.00;101388.56;10461165;28;20016;-67
2023/08/09 05:32:30;;;;;;;;;;;;;;;15.20;100.00;101366.28;10461359;28;20011;-67
2023/08/09 05:37:32;;;;;;;;;;;;;;;15.01;100.00;101379.88;10460596;28;19979;-67
2023/08/09 05:42:35;;;;;;;;;;;;;;;15.26;100.00;101390.56;10460780;28;19924;-67
2023/08/09 05:47:37;;;;;;;;;;;;;;;14.82;100.00;101398.69;10442495;28;20372;-67
2023/08/09 05:52:39;;;;;;;;;;;;;;;15.33;100.00;101397.97;10459712;28;20469;-67
2023/08/09 05:57:42;;;;;;;;;;;;;;;15.65;100.00;101401.97;10459665;28;20016;-67
2023/08/09 06:02:44;;;;;;;;;;;;;;;15.70;100.00;101410.41;10459810;28;19929;-67
2023/08/09 06:07:47;;;;;;;;;;;;;;;15.80;100.00;101408.84;10459479;28;19925;-67
2023/08/09 06:12:49;;;;;;;;;;;;;;;15.95;100.00;101415.72;10459384;28;19925;-67
2023/08/09 06:17:52;;;;;;;;;;;;;;;16.15;100.00;101408.16;10441995;28;19960;-67
2023/08/09 06:22:54;;;;;;;;;;;;;;;16.07;100.00;101427.22;10458927;28;19928;-67
2023/08/09 06:27:57;;;;;;;;;;;;;;;16.26;100.00;101410.06;10458579;28;19983;-67
2023/08/09 06:33:00;;;;;;;;;;;;;;;15.99;100.00;101421.63;10458377;28;19925;-67
2023/08/09 06:38:02;;;;;;;;;;;;;;;16.20;100.00;101429.81;10458103;28;19929;-67
2023/08/09 06:43:16;;;;;;;;;;;;;;;16.35;100.00;101425.22;10458304;28;20368;-67
2023/08/09 06:48:18;;;;;;;;;;;;;;;16.38;100.00;101440.03;10457773;28;19932;-67
2023/08/09 06:53:21;;;;;;;;;;;;;;;16.49;100.00;101453.28;10457595;28;19931;-67
2023/08/09 06:58:24;;;;;;;;;;;;;;;16.42;100.00;101457.34;10457224;28;20004;-67
2023/08/09 07:03:26;;;;;;;;;;;;;;;16.56;100.00;101462.50;10457320;28;19925;-67
2023/08/09 07:08:28;;;;;;;;;;;;;;;16.92;100.00;101455.50;10456753;28;20331;-67
2023/08/09 07:13:30;;;;;;;;;;;;;;;16.82;100.00;101470.31;10439587;28;20291;-67
2023/08/09 07:18:33;;;;;;;;;;;;;;;17.44;100.00;101471.94;10433076;28;20424;-67
2023/08/09 07:23:36;;;;;;;;;;;;;;;17.61;100.00;101462.69;10415727;28;19925;-67
2023/08/09 07:28:57;;;;;;;;;;;;;;;17.68;100.00;101463.06;10429799;28;20396;-67
2023/08/09 07:33:59;;;;;;;;;;;;;;;18.37;100.00;101470.94;10397569;28;19925;-67
2023/08/09 07:39:03;;;;;;;;;;;;;;;17.76;100.00;101471.28;10414869;28;19925;-67
2023/08/09 07:44:06;;;;;;;;;;;;;;;18.39;100.00;101466.34;10414830;28;19963;-66
2023/08/09 07:49:08;;;;;;;;;;;;;;;18.02;100.00;101474.56;10415388;28;19925;-67
2023/08/09 07:54:12;;;;;;;;;;;;;;;18.87;100.00;101483.75;10415032;28;19925;-67
2023/08/09 07:59:14;;;;;;;;;;;;;;;19.12;100.00;101490.56;10415083;28;20024;-67
2023/08/09 08:04:16;;;;;;;;;;;;;;;18.74;100.00;101498.00;10414887;28;19925;-67
2023/08/09 08:09:19;;;;;;;;;;;;;;;18.43;100.00;101496.13;10415426;28;19932;-66
2023/08/09 08:14:22;;;;;;;;;;;;;;;18.14;100.00;101497.47;10414749;28;19963;-67
2023/08/09 08:19:24;;;;;;;;;;;;;;;19.03;100.00;101496.59;10420607;28;20360;-66
2023/08/09 08:24:27;;;;;;;;;;;;;;;18.05;100.00;101492.03;10422503;28;19925;-67
2023/08/09 08:29:29;;;;;;;;;;;;;;;18.37;100.00;101503.59;10421040;28;19925;-66
2023/08/09 08:34:31;;;;;;;;;;;;;;;19.18;99.65;101510.44;10422137;28;19925;-66
2023/08/09 08:39:36;;;;;;;;;;;;;;;19.01;100.00;101514.47;10421693;28;20042;-66
2023/08/09 08:44:38;;;;;;;;;;;;;;;19.73;100.00;101526.22;10421475;28;19925;-66
2023/08/09 08:49:44;;;;;;;;;;;;;;;20.60;96.95;101517.81;10421455;28;20020;-67
2023/08/09 08:54:46;;;;;;;;;;;;;;;20.42;92.94;101520.28;10403532;28;20016;-66
2023/08/09 08:59:49;;;;;;;;;;;;;;;19.82;87.88;101520.13;10420796;28;19926;-66
2023/08/09 09:04:52;;;;;;;;;;;;;;;20.11;93.30;101535.41;10420868;28;19933;-66
2023/08/09 09:10:02;;;;;;;;;;;;;;;20.26;89.61;101538.53;10420857;28;20296;-66
2023/08/09 09:15:05;;;;;;;;;;;;;;;20.84;87.95;101527.28;10426562;22;20418;-64
2023/08/09 09:20:12;;;;;;;;;;;;;;;20.26;85.42;101528.75;10420248;28;19932;-66
2023/08/09 09:25:15;;;;;;;;;;;;;;;20.73;83.83;101525.59;10418858;28;20295;-64
2023/08/09 09:30:19;;;;;;;;;;;;;;;21.22;86.33;101534.47;10418029;28;19925;-65
2023/08/09 09:35:22;;;;;;;;;;;;;;;20.14;81.66;101538.66;10419730;28;20012;-66
2023/08/09 09:40:34;;;;;;;;;;;;;;;21.66;84.43;101528.72;10419341;28;19929;-66
2023/08/09 09:45:37;;;;;;;;;;;;;;;20.66;76.02;101543.91;10419205;28;20339;-65
2023/08/09 09:50:40;;;;;;;;;;;;;;;21.98;80.97;101532.84;10418906;28;19932;-65
2023/08/09 09:55:42;;;;;;;;;;;;;;;22.72;73.67;101531.16;10418688;28;19925;-65
2023/08/09 10:00:46;;;;;;;;;;;;;;;21.57;76.96;101538.41;10418782;28;20185;-65
2023/08/09 10:05:49;;;;;;;;;;;;;;;21.83;77.23;101522.63;10417340;28;19932;-65
2023/08/09 10:10:51;;;;;;;;;;;;;;;21.47;75.43;101519.78;10417017;28;20366;-65
2023/08/09 10:15:54;;;;;;;;;;;;;;;21.05;75.92;101522.69;10417068;28;19926;-65
2023/08/09 10:20:57;;;;;;;;;;;;;;;22.27;77.71;101530.06;10416512;28;20292;-65
2023/08/09 10:25:59;;;;;;;;;;;;;;;21.26;71.76;101532.34;10417701;28;19925;-65
2023/08/09 10:31:02;;;;;;;;;;;;;;;20.76;71.75;101544.78;10417328;28;19931;-66
2023/08/09 10:36:04;;;;;;;;;;;;;;;20.53;73.15;101544.13;10417078;28;19994;-65
2023/08/09 10:41:07;;;;;;;;;;;;;;;20.53;76.24;101545.94;10416121;28;19925;-65
2023/08/09 10:46:20;;;;;;;;;;;;;;;20.73;79.60;101544.22;10417011;28;20015;-65
2023/08/09 10:51:23;;;;;;;;;;;;;;;21.05;80.58;101536.00;10416803;28;19925;-65
2023/08/09 10:56:29;;;;;;;;;;;;;;;21.15;76.61;101534.19;10415453;28;19933;-66
2023/08/09 11:01:34;;;;;;;;;;;;;;;21.59;75.73;101536.44;10415106;28;19925;-66
2023/08/09 11:06:38;;;;;;;;;;;;;;;22.53;71.23;101540.94;10415129;28;19929;-65
2023/08/09 11:11:41;;;;;;;;;;;;;;;21.33;72.22;101546.78;10414711;28;19925;-66
2023/08/09 11:16:43;;;;;;;;;;;;;;;22.11;70.82;101548.50;10414702;28;19928;-66
2023/08/09 11:21:47;;;;;;;;;;;;;;;21.89;71.06;101540.72;10415983;28;19964;-65
2023/08/09 11:26:56;;;;;;;;;;;;;;;21.61;71.38;101544.28;10414583;28;19925;-65
2023/08/09 11:31:58;;;;;;;;;;;;;;;22.37;70.12;101541.56;10414372;28;19925;-66
2023/08/09 11:37:01;;;;;;;;;;;;;;;22.13;70.84;101547.41;10415732;28;20016;-65
2023/08/09 11:42:04;;;;;;;;;;;;;;;22.32;72.70;101548.34;10415263;28;19925;-66
2023/08/09 11:47:08;;;;;;;;;;;;;;;22.89;70.84;101556.19;10414903;28;19925;-66
2023/08/09 11:52:13;;;;;;;;;;;;;;;22.56;68.96;101553.13;10417907;28;19933;-66
2023/08/09 11:57:15;;;;;;;;;;;;;;;22.45;69.20;101556.84;10423220;28;20354;-66
2023/08/09 12:02:18;;;;;;;;;;;;;;;21.36;71.74;101577.66;10423046;28;19925;-66
2023/08/09 12:07:21;;;;;;;;;;;;;;;21.55;72.10;101571.50;10405391;28;20380;-66
2023/08/09 12:12:36;;;;;;;;;;;;;;;23.20;68.47;101570.06;10421839;28;19967;-68
2023/08/09 12:17:39;;;;;;;;;;;;;;;23.99;61.43;101575.53;10421318;28;19932;-68
2023/08/09 12:22:41;;;;;;;;;;;;;;;21.64;70.13;101582.16;10405295;28;20388;-68
2023/08/09 12:27:43;;;;;;;;;;;;;;;21.30;69.58;101585.22;10422173;28;19956;-68
2023/08/09 12:32:46;;;;;;;;;;;;;;;20.85;73.28;101590.19;10421772;28;20296;-68
2023/08/09 12:37:49;;;;;;;;;;;;;;;23.89;66.60;101581.84;10421647;28;19998;-68
2023/08/09 12:42:51;;;;;;;;;;;;;;;24.84;64.75;101565.75;10421954;28;20008;-68
2023/08/09 12:47:54;;;;;;;;;;;;;;;24.38;65.00;101561.75;10421251;28;19925;-68
2023/08/09 12:52:56;;;;;;;;;;;;;;;23.75;65.28;101571.69;10421182;28;19968;-68
2023/08/09 12:58:09;;;;;;;;;;;;;;;22.37;68.52;101570.06;10421221;28;19925;-68
2023/08/09 13:03:11;;;;;;;;;;;;;;;24.27;64.00;101571.69;10420042;28;19925;-68
2023/08/09 13:08:14;;;;;;;;;;;;;;;23.42;64.82;101583.94;10421505;28;19932;-67
2023/08/09 13:13:16;;;;;;;;;;;;;;;24.86;59.70;101568.28;10418997;28;20411;-68
2023/08/09 13:18:18;;;;;;;;;;;;;;;24.34;58.31;101573.75;10420323;28;19926;-68
2023/08/09 13:23:20;;;;;;;;;;;;;;;23.03;64.61;101579.69;10420250;28;19925;-68
2023/08/09 13:28:23;;;;;;;;;;;;;;;23.38;64.14;101588.75;10402312;28;19925;-68
2023/08/09 13:33:25;;;;;;;;;;;;;;;24.54;60.40;101577.84;10419692;28;19925;-69
2023/08/09 13:38:28;;;;;;;;;;;;;;;22.93;60.48;101592.25;10419389;28;19931;-67
2023/08/09 13:43:30;;;;;;;;;;;;;;;24.39;64.16;101599.00;10418525;28;20280;-67
2023/08/09 13:48:35;;;;;;;;;;;;;;;24.22;57.14;101592.75;10418892;28;20445;-67
2023/08/09 13:53:38;;;;;;;;;;;;;;;25.22;59.00;101600.19;10417633;28;20462;-68
2023/08/09 13:58:40;;;;;;;;;;;;;;;23.99;61.43;101608.50;10401066;28;19925;-65
2023/08/09 14:03:43;;;;;;;;;;;;;;;25.13;56.84;101603.84;10418402;28;19933;-67
2023/08/09 14:08:45;;;;;;;;;;;;;;;24.32;60.00;101611.38;10418151;28;20290;-66
2023/08/09 14:13:47;;;;;;;;;;;;;;;23.79;58.83;101620.31;10417610;28;19947;-66
2023/08/09 14:18:50;;;;;;;;;;;;;;;25.13;57.08;101610.06;10418019;28;19936;-67
2023/08/09 14:23:52;;;;;;;;;;;;;;;24.46;56.04;101613.47;10417655;28;19955;-67
2023/08/09 14:28:54;;;;;;;;;;;;;;;24.10;56.52;101623.44;10417260;28;19929;-67
2023/08/09 14:33:56;;;;;;;;;;;;;;;24.88;56.45;101611.81;10417406;28;20406;-67
2023/08/09 14:38:59;;;;;;;;;;;;;;;24.59;54.97;101614.88;10416866;28;20365;-67
2023/08/09 14:44:01;;;;;;;;;;;;;;;26.69;52.60;101623.34;10416794;28;19980;-67
2023/08/09 14:49:03;;;;;;;;;;;;;;;24.81;55.65;101626.84;10416666;28;19932;-67
2023/08/09 14:54:12;;;;;;;;;;;;;;;25.37;54.48;101643.28;10416555;28;19932;-67
2023/08/09 14:59:20;;;;;;;;;;;;;;;26.43;53.15;101642.41;10416686;28;19925;-66
2023/08/09 15:04:22;;;;;;;;;;;;;;;22.81;57.92;101666.38;10416423;28;19999;-66
2023/08/09 15:09:27;;;;;;;;;;;;;;;23.78;58.36;101662.28;10416390;28;19932;-67
2023/08/09 15:14:29;;;;;;;;;;;;;;;24.84;55.20;101655.97;10373987;28;19926;-67
2023/08/09 15:19:32;;;;;;;;;;;;;;;24.87;56.42;101665.56;10375125;28;19925;-67
2023/08/09 15:24:34;;;;;;;;;;;;;;;25.40;57.67;101672.41;10374956;28;19926;-66
2023/08/09 15:29:36;;;;;;;;;;;;;;;23.24;57.49;101685.47;10373382;28;19929;-67
2023/08/09 15:34:39;;;;;;;;;;;;;;;24.26;57.42;101684.25;10373622;28;19941;-66
2023/08/09 15:39:42;;;;;;;;;;;;;;;24.29;54.98;101690.13;10374478;28;19955;-66
2023/08/09 15:44:45;;;;;;;;;;;;;;;25.22;55.04;101678.72;10374512;28;20004;-66
2023/08/09 15:49:47;;;;;;;;;;;;;;;23.63;53.86;101702.06;10374460;28;19929;-66
2023/08/09 15:54:50;;;;;;;;;;;;;;;24.26;53.40;101711.00;10374280;28;20347;-66
2023/08/09 15:59:52;;;;;;;;;;;;;;;23.49;53.59;101705.28;10356659;28;19930;-66
2023/08/09 16:04:56;;;;;;;;;;;;;;;22.95;58.87;101703.28;10374524;28;19932;-66
2023/08/09 16:09:58;;;;;;;;;;;;;;;23.47;57.14;101694.72;10374075;28;19925;-66
2023/08/09 16:15:02;;;;;;;;;;;;;;;24.05;54.54;101689.94;10405454;28;19931;-66
2023/08/09 16:20:05;;;;;;;;;;;;;;;23.03;57.88;101694.53;10414833;28;20012;-66
2023/08/09 16:25:10;;;;;;;;;;;;;;;22.66;57.49;101706.03;10414545;28;20012;-67
2023/08/09 16:30:13;;;;;;;;;;;;;;;22.87;57.79;101695.16;10397167;28;19925;-66
2023/08/09 16:35:15;;;;;;;;;;;;;;;23.03;57.19;101699.84;10413228;28;20300;-66
2023/08/09 16:40:17;;;;;;;;;;;;;;;22.13;58.15;101714.56;10418907;28;19998;-66
2023/08/09 16:45:20;;;;;;;;;;;;;;;21.74;59.12;101707.41;10420596;28;19931;-67
2023/08/09 16:50:22;;;;;;;;;;;;;;;21.82;60.78;101720.88;10420178;28;20287;-67
2023/08/09 16:55:24;;;;;;;;;;;;;;;21.50;60.43;101729.97;10421185;28;19932;-67
2023/08/09 17:00:27;;;;;;;;;;;;;;;20.76;62.19;101728.41;10420883;28;20269;-66
2023/08/09 17:05:29;;;;;;;;;;;;;;;20.95;62.53;101737.44;10420781;28;19925;-66
2023/08/09 17:10:31;;;;;;;;;;;;;;;20.67;63.77;101746.97;10420703;28;19925;-66
2023/08/09 17:15:33;;;;;;;;;;;;;;;20.72;63.21;101745.59;10420232;28;19925;-66
2023/08/09 17:20:36;;;;;;;;;;;;;;;20.50;63.84;101751.84;10420241;28;19925;-66
2023/08/09 17:25:38;;;;;;;;;;;;;;;19.70;64.04;101753.09;10402404;28;20253;-67
2023/08/09 17:30:40;;;;;;;;;;;;;;;19.77;63.92;101753.47;10420199;28;19925;-66
2023/08/09 17:35:43;;;;;;;;;;;;;;;19.67;63.25;101764.00;10419695;28;19932;-66
2023/08/09 17:40:45;;;;;;;;;;;;;;;19.45;64.54;101768.38;10418196;28;20280;-66
2023/08/09 17:45:48;;;;;;;;;;;;;;;19.44;65.50;101768.50;10418066;28;20362;-66
2023/08/09 17:50:50;;;;;;;;;;;;;;;19.22;64.46;101764.06;10418416;28;19933;-66
2023/08/09 17:55:52;;;;;;;;;;;;;;;19.22;66.30;101774.66;10418852;28;20398;-67
2023/08/09 18:00:55;;;;;;;;;;;;;;;18.92;66.98;101768.97;10418562;28;19925;-67
2023/08/09 18:05:57;;;;;;;;;;;;;;;18.83;67.45;101776.78;10418525;28;19960;-67
2023/08/09 18:10:59;;;;;;;;;;;;;;;18.75;68.13;101790.63;10418225;28;20357;-67
2023/08/09 18:16:01;;;;;;;;;;;;;;;18.63;68.97;101791.56;10418167;28;19925;-66
2023/08/09 18:21:04;;;;;;;;;;;;;;;18.26;67.86;101803.13;10400388;28;19968;-67
2023/08/09 18:26:06;;;;;;;;;;;;;;;18.69;68.45;101812.31;10416516;28;19932;-66
2023/08/09 18:31:10;;;;;;;;;;;;;;;18.46;68.74;101809.59;10416689;28;20426;-66
2023/08/09 18:36:13;;;;;;;;;;;;;;;18.33;68.72;101814.13;10416187;28;19948;-66
2023/08/09 18:41:15;;;;;;;;;;;;;;;18.28;69.27;101816.25;10416959;28;20380;-67
2023/08/09 18:46:17;;;;;;;;;;;;;;;18.32;69.55;101807.94;10399585;28;19931;-67
2023/08/09 18:51:19;;;;;;;;;;;;;;;18.06;70.72;101819.66;10417205;28;20311;-66
2023/08/09 18:56:22;;;;;;;;;;;;;;;17.86;70.16;101826.34;10416731;28;19925;-67
2023/08/09 19:01:24;;;;;;;;;;;;;;;17.76;70.66;101829.66;10415668;28;19925;-67
2023/08/09 19:06:26;;;;;;;;;;;;;;;17.77;72.04;101836.66;10416464;28;19929;-67
2023/08/09 19:11:28;;;;;;;;;;;;;;;17.27;72.55;101849.84;10416159;28;19929;-67
2023/08/09 19:16:31;;;;;;;;;;;;;;;17.35;73.18;101851.09;10416040;28;19932;-67
2023/08/09 19:21:33;;;;;;;;;;;;;;;17.22;73.50;101856.41;10414536;28;19929;-66
2023/08/09 19:26:35;;;;;;;;;;;;;;;17.12;75.24;101860.63;10414472;28;20365;-66
2023/08/09 19:31:38;;;;;;;;;;;;;;;16.86;76.24;101865.88;10398054;28;19932;-66
2023/08/09 19:36:41;;;;;;;;;;;;;;;16.73;75.56;101871.13;10414264;28;19932;-67
2023/08/09 19:41:44;;;;;;;;;;;;;;;16.49;75.57;101868.28;10415399;28;20016;-67
2023/08/09 19:46:46;;;;;;;;;;;;;;;16.55;74.70;101874.97;10414260;28;20007;-66
2023/08/09 19:51:49;;;;;;;;;;;;;;;16.39;78.61;101870.69;10415183;28;19929;-67
2023/08/09 19:56:51;;;;;;;;;;;;;;;16.33;79.74;101866.66;10415686;28;19975;-66
2023/08/09 20:01:54;;;;;;;;;;;;;;;16.13;82.17;101882.94;10414973;28;19932;-66
2023/08/09 20:06:57;;;;;;;;;;;;;;;15.97;83.63;101875.16;10414859;28;20292;-67
2023/08/09 20:11:59;;;;;;;;;;;;;;;15.78;84.92;101875.44;10415545;28;19925;-67
2023/08/09 20:17:02;;;;;;;;;;;;;;;15.48;88.75;101888.69;10422555;28;19925;-67
2023/08/09 20:22:05;;;;;;;;;;;;;;;15.31;91.69;101897.63;10405618;28;20407;-67
2023/08/09 20:27:07;;;;;;;;;;;;;;;15.09;93.64;101900.69;10422321;28;20276;-67
2023/08/09 20:32:10;;;;;;;;;;;;;;;15.03;95.72;101909.84;10421108;28;19925;-67
2023/08/09 20:37:12;;;;;;;;;;;;;;;15.03;95.60;101904.56;10421897;28;19977;-67
2023/08/09 20:42:15;;;;;;;;;;;;;;;14.87;97.32;101909.84;10421941;28;19929;-67
2023/08/09 20:47:18;;;;;;;;;;;;;;;14.80;99.19;101909.38;10421496;28;20373;-67
2023/08/09 20:52:21;;;;;;;;;;;;;;;14.65;100.00;101907.59;10421334;28;19925;-67
2023/08/09 20:57:23;;;;;;;;;;;;;;;14.57;100.00;101920.34;10421267;28;19925;-67
2023/08/09 21:02:25;;;;;;;;;;;;;;;14.52;100.00;101923.22;10420817;28;19929;-67
2023/08/09 21:07:28;;;;;;;;;;;;;;;14.26;100.00;101920.25;10419611;28;20269;-67
2023/08/09 21:12:30;;;;;;;;;;;;;;;14.13;100.00;101920.06;10420332;28;19925;-67
2023/08/09 21:17:34;;;;;;;;;;;;;;;14.26;100.00;101928.16;10419168;28;19925;-67
2023/08/09 21:22:36;;;;;;;;;;;;;;;14.24;100.00;101923.91;10420279;28;19925;-67
2023/08/09 21:27:38;;;;;;;;;;;;;;;14.19;100.00;101918.91;10459160;22;19962;-64
2023/08/09 21:32:41;;;;;;;;;;;;;;;14.07;100.00;101920.44;10503269;28;19924;-64
2023/08/09 21:37:43;;;;;;;;;;;;;;;14.08;100.00;101926.53;10501069;28;19925;-64
2023/08/09 21:42:45;;;;;;;;;;;;;;;14.00;100.00;101931.38;10502847;28;19930;-64
2023/08/09 21:47:47;;;;;;;;;;;;;;;13.98;100.00;101930.59;10502165;28;19938;-64
2023/08/09 21:52:50;;;;;;;;;;;;;;;13.93;100.00;101928.22;10501693;28;19928;-64
2023/08/09 21:57:52;;;;;;;;;;;;;;;13.98;100.00;101941.13;10501671;28;19989;-64
2023/08/09 22:02:54;;;;;;;;;;;;;;;14.05;100.00;101934.59;10501329;28;19929;-65
2023/08/09 22:07:56;;;;;;;;;;;;;;;14.09;100.00;101949.31;10501058;28;19925;-65
2023/08/09 22:12:59;;;;;;;;;;;;;;;14.01;100.00;101947.09;10500787;28;19925;-64
2023/08/09 22:18:01;;;;;;;;;;;;;;;13.80;100.00;101941.19;10500510;28;19924;-64
2023/08/09 22:23:04;;;;;;;;;;;;;;;13.67;100.00;101940.97;10500684;28;19974;-64
2023/08/09 22:28:11;;;;;;;;;;;;;;;13.77;100.00;101951.88;10500365;28;19924;-64
2023/08/09 22:33:14;;;;;;;;;;;;;;;13.57;100.00;101956.38;10500144;28;19928;-64
2023/08/09 22:38:16;;;;;;;;;;;;;;;13.47;100.00;101964.84;10499880;28;19930;-64
2023/08/09 22:43:18;;;;;;;;;;;;;;;13.45;100.00;101962.28;10499905;28;19924;-64
2023/08/09 22:48:21;;;;;;;;;;;;;;;13.37;100.00;101970.56;10498447;28;19931;-64
2023/08/09 22:53:24;;;;;;;;;;;;;;;13.50;100.00;101970.78;10499404;28;20015;-64
2023/08/09 22:58:26;;;;;;;;;;;;;;;13.32;100.00;101962.03;10497902;28;19924;-65
2023/08/09 23:03:29;;;;;;;;;;;;;;;13.37;100.00;101965.28;10499097;28;19924;-64
2023/08/09 23:08:31;;;;;;;;;;;;;;;13.38;100.00;101967.00;10499134;28;19967;-65
2023/08/09 23:13:33;;;;;;;;;;;;;;;13.47;100.00;101967.47;10498776;28;19924;-64
2023/08/09 23:18:37;;;;;;;;;;;;;;;13.63;100.00;101973.63;10497691;28;19924;-64
2023/08/09 23:23:39;;;;;;;;;;;;;;;13.70;100.00;101975.03;10497491;28;19924;-64
2023/08/09 23:28:41;;;;;;;;;;;;;;;13.70;100.00;101975.03;10497342;28;19924;-64
2023/08/09 23:33:44;;;;;;;;;;;;;;;13.77;100.00;101980.84;10514330;28;19935;-64
2023/08/09 23:38:46;;;;;;;;;;;;;;;13.91;100.00;101986.22;10498167;28;19924;-65
2023/08/09 23:43:48;;;;;;;;;;;;;;;14.03;100.00;101986.50;10498775;28;20291;-64
2023/08/09 23:48:50;;;;;;;;;;;;;;;14.18;100.00;101992.72;10502094;28;19925;-64
2023/08/09 23:53:53;;;;;;;;;;;;;;;14.10;100.00;101991.38;10506353;28;19925;-65
2023/08/09 23:58:55;;;;;;;;;;;;;;;14.05;100.00;101982.00;10506348;28;19925;-65
